sensor_id;sensor_type;location;lat;lon;timestamp;temperature;humidity
51793;DHT22;37850;53.178;6.376;2023-11-18T00:01:09;3.10;99.90
51793;DHT22;37850;53.178;6.376;2023-11-18T00:03:35;3.10;99.90
51793;DHT22;37850;53.178;6.376;2023-11-18T00:06:01;3.40;99.90
51793;DHT22;37850;53.178;6.376;2023-11-18T00:08:26;3.10;99.90
51793;DHT22;37850;53.178;6.376;2023-11-18T00:10:52;3.10;99.90
51793;DHT22;37850;53.178;6.376;2023-11-18T00:13:19;3.10;99.90
51793;DHT22;37850;53.178;6.376;2023-11-18T00:15:44;3.10;99.90
51793;DHT22;37850;53.178;6.376;2023-11-18T00:18:11;3.10;99.90
51793;DHT22;37850;53.178;6.376;2023-11-18T00:20:37;3.10;99.90
51793;DHT22;37850;53.178;6.376;2023-11-18T00:23:03;3.40;99.90
51793;DHT22;37850;53.178;6.376;2023-11-18T00:25:31;3.10;99.90
51793;DHT22;37850;53.178;6.376;2023-11-18T00:27:59;3.00;99.90
51793;DHT22;37850;53.178;6.376;2023-11-18T00:30:25;3.10;99.90
51793;DHT22;37850;53.178;6.376;2023-11-18T00:32:51;3.10;99.90
51793;DHT22;37850;53.178;6.376;2023-11-18T00:35:17;3.00;99.90
51793;DHT22;37850;53.178;6.376;2023-11-18T00:37:43;3.10;99.90
51793;DHT22;37850;53.178;6.376;2023-11-18T00:40:09;3.00;99.90
51793;DHT22;37850;53.178;6.376;2023-11-18T00:42:35;3.00;99.90
51793;DHT22;37850;53.178;6.376;2023-11-18T00:45:01;3.00;99.90
51793;DHT22;37850;53.178;6.376;2023-11-18T00:47:26;3.00;99.90
51793;DHT22;37850;53.178;6.376;2023-11-18T00:49:52;3.00;99.90
51793;DHT22;37850;53.178;6.376;2023-11-18T00:52:19;3.00;99.90
51793;DHT22;37850;53.178;6.376;2023-11-18T00:54:45;2.90;99.90
51793;DHT22;37850;53.178;6.376;2023-11-18T00:57:11;2.90;99.90
51793;DHT22;37850;53.178;6.376;2023-11-18T00:59:37;3.00;99.90
51793;DHT22;37850;53.178;6.376;2023-11-18T01:02:03;2.90;99.90
51793;DHT22;37850;53.178;6.376;2023-11-18T01:04:29;2.90;99.90
51793;DHT22;37850;53.178;6.376;2023-11-18T01:06:54;2.90;99.90
51793;DHT22;37850;53.178;6.376;2023-11-18T01:09:23;2.80;99.90
51793;DHT22;37850;53.178;6.376;2023-11-18T01:11:49;2.90;99.90
51793;DHT22;37850;53.178;6.376;2023-11-18T01:14:15;2.80;99.90
51793;DHT22;37850;53.178;6.376;2023-11-18T01:16:43;2.90;99.90
51793;DHT22;37850;53.178;6.376;2023-11-18T01:19:09;2.90;99.90
51793;DHT22;37850;53.178;6.376;2023-11-18T01:21:35;2.80;99.90
51793;DHT22;37850;53.178;6.376;2023-11-18T01:24:02;2.80;99.90
51793;DHT22;37850;53.178;6.376;2023-11-18T01:26:28;2.80;99.90
51793;DHT22;37850;53.178;6.376;2023-11-18T01:28:53;2.80;99.90
51793;DHT22;37850;53.178;6.376;2023-11-18T01:31:21;2.80;99.90
51793;DHT22;37850;53.178;6.376;2023-11-18T01:33:47;2.80;99.90
51793;DHT22;37850;53.178;6.376;2023-11-18T01:36:15;2.80;99.90
51793;DHT22;37850;53.178;6.376;2023-11-18T01:38:44;2.70;99.90
51793;DHT22;37850;53.178;6.376;2023-11-18T01:41:10;2.80;99.90
51793;DHT22;37850;53.178;6.376;2023-11-18T01:43:36;2.70;99.90
51793;DHT22;37850;53.178;6.376;2023-11-18T01:46:03;2.70;99.90
51793;DHT22;37850;53.178;6.376;2023-11-18T01:48:30;2.70;99.90
51793;DHT22;37850;53.178;6.376;2023-11-18T01:50:58;2.70;99.90
51793;DHT22;37850;53.178;6.376;2023-11-18T01:53:25;2.70;99.90
51793;DHT22;37850;53.178;6.376;2023-11-18T01:55:52;2.70;99.90
51793;DHT22;37850;53.178;6.376;2023-11-18T01:58:18;2.70;99.90
51793;DHT22;37850;53.178;6.376;2023-11-18T02:00:45;2.70;99.90
51793;DHT22;37850;53.178;6.376;2023-11-18T02:03:12;2.70;99.90
51793;DHT22;37850;53.178;6.376;2023-11-18T02:05:38;2.70;99.90
51793;DHT22;37850;53.178;6.376;2023-11-18T02:08:05;2.70;99.90
51793;DHT22;37850;53.178;6.376;2023-11-18T02:10:36;2.80;99.90
51793;DHT22;37850;53.178;6.376;2023-11-18T02:13:12;2.70;99.90
51793;DHT22;37850;53.178;6.376;2023-11-18T02:15:45;2.70;99.90
51793;DHT22;37850;53.178;6.376;2023-11-18T02:18:12;2.70;99.90
51793;DHT22;37850;53.178;6.376;2023-11-18T02:20:39;3.40;99.90
51793;DHT22;37850;53.178;6.376;2023-11-18T02:23:05;2.70;99.90
51793;DHT22;37850;53.178;6.376;2023-11-18T02:25:33;2.70;99.90
51793;DHT22;37850;53.178;6.376;2023-11-18T02:28:00;2.80;99.90
51793;DHT22;37850;53.178;6.376;2023-11-18T02:30:26;2.80;99.90
51793;DHT22;37850;53.178;6.376;2023-11-18T02:36:09;2.80;99.90
51793;DHT22;37850;53.178;6.376;2023-11-18T02:38:40;2.80;99.90
51793;DHT22;37850;53.178;6.376;2023-11-18T02:41:12;3.20;99.90
51793;DHT22;37850;53.178;6.376;2023-11-18T02:43:39;2.80;99.90
51793;DHT22;37850;53.178;6.376;2023-11-18T02:46:07;2.80;99.90
51793;DHT22;37850;53.178;6.376;2023-11-18T02:48:33;2.80;99.90
51793;DHT22;37850;53.178;6.376;2023-11-18T02:50:59;2.80;99.90
51793;DHT22;37850;53.178;6.376;2023-11-18T02:53:25;2.90;99.90
51793;DHT22;37850;53.178;6.376;2023-11-18T02:55:51;2.80;99.90
51793;DHT22;37850;53.178;6.376;2023-11-18T02:58:18;2.90;99.90
51793;DHT22;37850;53.178;6.376;2023-11-18T03:00:44;2.80;99.90
51793;DHT22;37850;53.178;6.376;2023-11-18T03:03:13;2.90;99.90
51793;DHT22;37850;53.178;6.376;2023-11-18T03:05:39;2.90;99.90
51793;DHT22;37850;53.178;6.376;2023-11-18T03:08:05;2.80;99.90
51793;DHT22;37850;53.178;6.376;2023-11-18T03:10:33;2.90;99.90
51793;DHT22;37850;53.178;6.376;2023-11-18T03:13:01;2.90;99.90
51793;DHT22;37850;53.178;6.376;2023-11-18T03:15:27;2.90;99.90
51793;DHT22;37850;53.178;6.376;2023-11-18T03:17:54;2.80;99.90
51793;DHT22;37850;53.178;6.376;2023-11-18T03:20:21;2.80;99.90
51793;DHT22;37850;53.178;6.376;2023-11-18T03:22:49;2.80;99.90
51793;DHT22;37850;53.178;6.376;2023-11-18T03:25:16;2.90;99.90
51793;DHT22;37850;53.178;6.376;2023-11-18T03:27:43;3.00;99.90
51793;DHT22;37850;53.178;6.376;2023-11-18T03:30:10;2.90;99.90
51793;DHT22;37850;53.178;6.376;2023-11-18T03:32:36;2.90;99.90
51793;DHT22;37850;53.178;6.376;2023-11-18T03:35:06;3.10;99.90
51793;DHT22;37850;53.178;6.376;2023-11-18T03:37:43;2.80;99.90
51793;DHT22;37850;53.178;6.376;2023-11-18T03:40:11;3.00;99.90
51793;DHT22;37850;53.178;6.376;2023-11-18T03:42:38;2.90;99.90
51793;DHT22;37850;53.178;6.376;2023-11-18T03:45:05;2.80;99.90
51793;DHT22;37850;53.178;6.376;2023-11-18T03:47:32;2.80;99.90
51793;DHT22;37850;53.178;6.376;2023-11-18T03:49:59;2.80;99.90
51793;DHT22;37850;53.178;6.376;2023-11-18T03:52:25;2.80;99.90
51793;DHT22;37850;53.178;6.376;2023-11-18T03:54:51;2.80;99.90
51793;DHT22;37850;53.178;6.376;2023-11-18T03:57:17;2.80;99.90
51793;DHT22;37850;53.178;6.376;2023-11-18T03:59:42;2.80;99.90
51793;DHT22;37850;53.178;6.376;2023-11-18T04:02:08;2.80;99.90
51793;DHT22;37850;53.178;6.376;2023-11-18T04:04:37;2.80;99.90
51793;DHT22;37850;53.178;6.376;2023-11-18T04:07:03;2.80;99.90
51793;DHT22;37850;53.178;6.376;2023-11-18T04:09:29;2.80;99.90
51793;DHT22;37850;53.178;6.376;2023-11-18T04:11:55;2.80;99.90
51793;DHT22;37850;53.178;6.376;2023-11-18T04:14:21;2.80;99.90
51793;DHT22;37850;53.178;6.376;2023-11-18T04:16:48;2.70;99.90
51793;DHT22;37850;53.178;6.376;2023-11-18T04:19:15;2.80;99.90
51793;DHT22;37850;53.178;6.376;2023-11-18T04:21:41;2.80;99.90
51793;DHT22;37850;53.178;6.376;2023-11-18T04:24:08;2.80;99.90
51793;DHT22;37850;53.178;6.376;2023-11-18T04:26:34;2.80;99.90
51793;DHT22;37850;53.178;6.376;2023-11-18T04:29:00;2.80;99.90
51793;DHT22;37850;53.178;6.376;2023-11-18T04:31:26;2.80;99.90
51793;DHT22;37850;53.178;6.376;2023-11-18T04:33:51;2.80;99.90
51793;DHT22;37850;53.178;6.376;2023-11-18T04:36:17;2.80;99.90
51793;DHT22;37850;53.178;6.376;2023-11-18T04:38:44;3.10;99.90
51793;DHT22;37850;53.178;6.376;2023-11-18T04:41:10;2.80;99.90
51793;DHT22;37850;53.178;6.376;2023-11-18T04:43:36;2.90;99.90
51793;DHT22;37850;53.178;6.376;2023-11-18T04:46:01;2.90;99.90
51793;DHT22;37850;53.178;6.376;2023-11-18T04:48:27;2.90;99.90
51793;DHT22;37850;53.178;6.376;2023-11-18T04:50:54;2.90;99.90
51793;DHT22;37850;53.178;6.376;2023-11-18T04:53:19;2.90;99.90
51793;DHT22;37850;53.178;6.376;2023-11-18T04:55:45;2.90;99.90
51793;DHT22;37850;53.178;6.376;2023-11-18T04:58:11;2.90;99.90
51793;DHT22;37850;53.178;6.376;2023-11-18T05:00:36;3.00;99.90
51793;DHT22;37850;53.178;6.376;2023-11-18T05:03:05;3.00;99.90
51793;DHT22;37850;53.178;6.376;2023-11-18T05:05:35;2.90;99.90
51793;DHT22;37850;53.178;6.376;2023-11-18T05:08:06;3.00;99.90
51793;DHT22;37850;53.178;6.376;2023-11-18T05:10:34;3.00;99.90
51793;DHT22;37850;53.178;6.376;2023-11-18T05:13:00;3.60;99.90
51793;DHT22;37850;53.178;6.376;2023-11-18T05:15:26;3.00;99.90
51793;DHT22;37850;53.178;6.376;2023-11-18T05:17:53;3.00;99.90
51793;DHT22;37850;53.178;6.376;2023-11-18T05:20:20;3.00;99.90
51793;DHT22;37850;53.178;6.376;2023-11-18T05:22:47;3.00;99.90
51793;DHT22;37850;53.178;6.376;2023-11-18T05:25:13;3.00;99.90
51793;DHT22;37850;53.178;6.376;2023-11-18T05:27:39;3.10;99.90
51793;DHT22;37850;53.178;6.376;2023-11-18T05:30:10;3.10;99.90
51793;DHT22;37850;53.178;6.376;2023-11-18T05:32:36;3.10;99.90
51793;DHT22;37850;53.178;6.376;2023-11-18T05:35:03;3.10;99.90
51793;DHT22;37850;53.178;6.376;2023-11-18T05:37:30;3.10;99.90
51793;DHT22;37850;53.178;6.376;2023-11-18T05:40:01;3.20;99.90
51793;DHT22;37850;53.178;6.376;2023-11-18T05:42:35;3.20;99.90
51793;DHT22;37850;53.178;6.376;2023-11-18T05:45:03;3.20;99.90
51793;DHT22;37850;53.178;6.376;2023-11-18T05:47:30;3.20;99.90
51793;DHT22;37850;53.178;6.376;2023-11-18T05:49:56;3.30;99.90
51793;DHT22;37850;53.178;6.376;2023-11-18T05:52:22;4.10;99.90
51793;DHT22;37850;53.178;6.376;2023-11-18T05:54:48;3.30;99.90
51793;DHT22;37850;53.178;6.376;2023-11-18T05:57:16;3.30;99.90
51793;DHT22;37850;53.178;6.376;2023-11-18T05:59:43;3.30;99.90
51793;DHT22;37850;53.178;6.376;2023-11-18T06:02:09;3.40;99.90
51793;DHT22;37850;53.178;6.376;2023-11-18T06:04:38;3.40;99.90
51793;DHT22;37850;53.178;6.376;2023-11-18T06:07:04;3.40;99.90
51793;DHT22;37850;53.178;6.376;2023-11-18T06:09:30;3.40;99.90
51793;DHT22;37850;53.178;6.376;2023-11-18T06:11:56;4.10;99.90
51793;DHT22;37850;53.178;6.376;2023-11-18T06:14:21;3.40;99.90
51793;DHT22;37850;53.178;6.376;2023-11-18T06:16:47;3.50;99.90
51793;DHT22;37850;53.178;6.376;2023-11-18T06:19:16;3.50;99.90
51793;DHT22;37850;53.178;6.376;2023-11-18T06:21:42;3.50;99.90
51793;DHT22;37850;53.178;6.376;2023-11-18T06:24:07;3.70;99.90
51793;DHT22;37850;53.178;6.376;2023-11-18T06:26:36;3.50;99.90
51793;DHT22;37850;53.178;6.376;2023-11-18T06:29:03;3.50;99.90
51793;DHT22;37850;53.178;6.376;2023-11-18T06:31:31;3.50;99.90
51793;DHT22;37850;53.178;6.376;2023-11-18T06:33:57;3.50;99.90
51793;DHT22;37850;53.178;6.376;2023-11-18T06:36:23;3.60;99.90
51793;DHT22;37850;53.178;6.376;2023-11-18T06:38:53;3.50;99.90
51793;DHT22;37850;53.178;6.376;2023-11-18T06:41:21;3.60;99.90
51793;DHT22;37850;53.178;6.376;2023-11-18T06:43:49;3.60;99.90
51793;DHT22;37850;53.178;6.376;2023-11-18T06:46:27;3.60;99.90
51793;DHT22;37850;53.178;6.376;2023-11-18T06:48:55;3.60;99.90
51793;DHT22;37850;53.178;6.376;2023-11-18T06:51:25;3.70;99.90
51793;DHT22;37850;53.178;6.376;2023-11-18T06:53:53;4.10;99.90
51793;DHT22;37850;53.178;6.376;2023-11-18T06:56:24;3.70;99.90
51793;DHT22;37850;53.178;6.376;2023-11-18T06:58:50;3.70;99.90
51793;DHT22;37850;53.178;6.376;2023-11-18T07:01:17;3.70;99.90
51793;DHT22;37850;53.178;6.376;2023-11-18T07:03:44;3.70;99.90
51793;DHT22;37850;53.178;6.376;2023-11-18T07:06:10;3.80;99.90
51793;DHT22;37850;53.178;6.376;2023-11-18T07:08:39;3.70;99.90
51793;DHT22;37850;53.178;6.376;2023-11-18T07:11:06;3.80;99.90
51793;DHT22;37850;53.178;6.376;2023-11-18T07:13:32;3.80;99.90
51793;DHT22;37850;53.178;6.376;2023-11-18T07:16:00;3.80;99.90
51793;DHT22;37850;53.178;6.376;2023-11-18T07:18:29;3.90;99.90
51793;DHT22;37850;53.178;6.376;2023-11-18T07:21:01;3.90;99.90
51793;DHT22;37850;53.178;6.376;2023-11-18T07:23:28;3.90;99.90
51793;DHT22;37850;53.178;6.376;2023-11-18T07:25:54;4.00;99.90
51793;DHT22;37850;53.178;6.376;2023-11-18T07:28:21;4.10;99.90
51793;DHT22;37850;53.178;6.376;2023-11-18T07:30:47;4.00;99.90
51793;DHT22;37850;53.178;6.376;2023-11-18T07:33:17;4.70;99.90
51793;DHT22;37850;53.178;6.376;2023-11-18T07:35:43;4.00;99.90
51793;DHT22;37850;53.178;6.376;2023-11-18T07:38:09;4.10;99.90
51793;DHT22;37850;53.178;6.376;2023-11-18T07:40:36;4.00;99.90
51793;DHT22;37850;53.178;6.376;2023-11-18T07:43:03;4.10;99.90
51793;DHT22;37850;53.178;6.376;2023-11-18T07:45:38;4.20;99.90
51793;DHT22;37850;53.178;6.376;2023-11-18T07:48:06;4.10;99.90
51793;DHT22;37850;53.178;6.376;2023-11-18T07:50:41;4.20;99.90
51793;DHT22;37850;53.178;6.376;2023-11-18T07:53:07;4.20;99.90
51793;DHT22;37850;53.178;6.376;2023-11-18T07:55:34;4.20;99.90
51793;DHT22;37850;53.178;6.376;2023-11-18T07:58:03;4.20;99.90
51793;DHT22;37850;53.178;6.376;2023-11-18T08:00:29;4.20;99.90
51793;DHT22;37850;53.178;6.376;2023-11-18T08:02:59;4.40;99.90
51793;DHT22;37850;53.178;6.376;2023-11-18T08:05:26;4.20;99.90
51793;DHT22;37850;53.178;6.376;2023-11-18T08:07:53;4.20;99.90
51793;DHT22;37850;53.178;6.376;2023-11-18T08:10:19;4.70;99.90
51793;DHT22;37850;53.178;6.376;2023-11-18T08:12:47;4.30;99.90
51793;DHT22;37850;53.178;6.376;2023-11-18T08:15:13;4.50;99.90
51793;DHT22;37850;53.178;6.376;2023-11-18T08:17:39;4.30;99.90
51793;DHT22;37850;53.178;6.376;2023-11-18T08:20:05;4.30;99.90
51793;DHT22;37850;53.178;6.376;2023-11-18T08:22:43;4.30;99.90
51793;DHT22;37850;53.178;6.376;2023-11-18T08:25:12;4.30;99.90
51793;DHT22;37850;53.178;6.376;2023-11-18T08:27:39;4.30;99.90
51793;DHT22;37850;53.178;6.376;2023-11-18T08:30:07;4.40;99.90
51793;DHT22;37850;53.178;6.376;2023-11-18T08:32:37;4.30;99.90
51793;DHT22;37850;53.178;6.376;2023-11-18T08:35:07;4.40;99.90
51793;DHT22;37850;53.178;6.376;2023-11-18T08:37:40;4.40;99.90
51793;DHT22;37850;53.178;6.376;2023-11-18T08:40:07;4.40;99.90
51793;DHT22;37850;53.178;6.376;2023-11-18T08:42:47;4.40;99.90
51793;DHT22;37850;53.178;6.376;2023-11-18T08:45:17;5.10;99.90
51793;DHT22;37850;53.178;6.376;2023-11-18T08:47:45;4.50;99.90
51793;DHT22;37850;53.178;6.376;2023-11-18T08:50:15;4.60;99.90
51793;DHT22;37850;53.178;6.376;2023-11-18T08:52:45;4.40;99.90
51793;DHT22;37850;53.178;6.376;2023-11-18T08:55:15;4.50;99.90
51793;DHT22;37850;53.178;6.376;2023-11-18T08:57:49;4.60;99.90
51793;DHT22;37850;53.178;6.376;2023-11-18T09:00:39;4.90;99.90
51793;DHT22;37850;53.178;6.376;2023-11-18T09:03:08;4.60;99.90
51793;DHT22;37850;53.178;6.376;2023-11-18T09:05:34;4.60;99.90
51793;DHT22;37850;53.178;6.376;2023-11-18T09:08:02;4.70;99.90
51793;DHT22;37850;53.178;6.376;2023-11-18T09:10:31;4.70;99.90
51793;DHT22;37850;53.178;6.376;2023-11-18T09:12:58;5.40;99.90
51793;DHT22;37850;53.178;6.376;2023-11-18T09:15:24;4.80;99.90
51793;DHT22;37850;53.178;6.376;2023-11-18T09:17:50;4.80;99.90
51793;DHT22;37850;53.178;6.376;2023-11-18T09:20:18;4.80;99.90
51793;DHT22;37850;53.178;6.376;2023-11-18T09:22:56;4.80;99.90
51793;DHT22;37850;53.178;6.376;2023-11-18T09:25:23;4.80;99.90
51793;DHT22;37850;53.178;6.376;2023-11-18T09:27:49;4.90;99.90
51793;DHT22;37850;53.178;6.376;2023-11-18T09:30:14;4.90;99.90
51793;DHT22;37850;53.178;6.376;2023-11-18T09:32:41;4.90;99.90
51793;DHT22;37850;53.178;6.376;2023-11-18T09:35:13;4.90;99.90
51793;DHT22;37850;53.178;6.376;2023-11-18T09:37:39;5.00;99.90
51793;DHT22;37850;53.178;6.376;2023-11-18T09:40:13;5.00;99.90
51793;DHT22;37850;53.178;6.376;2023-11-18T09:42:42;5.00;99.90
51793;DHT22;37850;53.178;6.376;2023-11-18T09:45:10;5.00;99.90
51793;DHT22;37850;53.178;6.376;2023-11-18T09:47:42;5.00;99.90
51793;DHT22;37850;53.178;6.376;2023-11-18T09:50:10;5.10;99.90
51793;DHT22;37850;53.178;6.376;2023-11-18T09:52:42;5.00;99.90
51793;DHT22;37850;53.178;6.376;2023-11-18T09:55:24;5.40;99.90
51793;DHT22;37850;53.178;6.376;2023-11-18T09:57:56;5.10;99.90
51793;DHT22;37850;53.178;6.376;2023-11-18T10:00:26;5.10;99.90
51793;DHT22;37850;53.178;6.376;2023-11-18T10:02:58;5.10;99.90
51793;DHT22;37850;53.178;6.376;2023-11-18T10:05:27;5.10;99.90
51793;DHT22;37850;53.178;6.376;2023-11-18T10:07:53;5.10;99.90
51793;DHT22;37850;53.178;6.376;2023-11-18T10:10:20;5.10;99.90
51793;DHT22;37850;53.178;6.376;2023-11-18T10:12:51;5.20;99.90
51793;DHT22;37850;53.178;6.376;2023-11-18T10:15:24;5.20;99.90
51793;DHT22;37850;53.178;6.376;2023-11-18T10:17:51;5.20;99.90
51793;DHT22;37850;53.178;6.376;2023-11-18T10:23:14;5.10;99.90
51793;DHT22;37850;53.178;6.376;2023-11-18T10:25:55;5.40;99.90
51793;DHT22;37850;53.178;6.376;2023-11-18T10:28:35;5.10;99.90
51793;DHT22;37850;53.178;6.376;2023-11-18T10:31:08;5.10;99.90
51793;DHT22;37850;53.178;6.376;2023-11-18T10:33:36;5.10;99.90
51793;DHT22;37850;53.178;6.376;2023-11-18T10:36:04;5.10;99.90
51793;DHT22;37850;53.178;6.376;2023-11-18T10:38:31;5.10;99.90
51793;DHT22;37850;53.178;6.376;2023-11-18T10:40:58;5.10;99.90
51793;DHT22;37850;53.178;6.376;2023-11-18T10:43:26;5.50;99.90
51793;DHT22;37850;53.178;6.376;2023-11-18T10:46:05;5.30;99.90
51793;DHT22;37850;53.178;6.376;2023-11-18T10:48:40;5.10;99.90
51793;DHT22;37850;53.178;6.376;2023-11-18T10:51:11;5.10;99.90
51793;DHT22;37850;53.178;6.376;2023-11-18T10:53:38;5.10;99.90
51793;DHT22;37850;53.178;6.376;2023-11-18T10:56:05;5.60;99.90
51793;DHT22;37850;53.178;6.376;2023-11-18T10:58:37;5.10;99.90
51793;DHT22;37850;53.178;6.376;2023-11-18T11:01:06;5.00;99.90
51793;DHT22;37850;53.178;6.376;2023-11-18T11:03:55;5.00;99.90
51793;DHT22;37850;53.178;6.376;2023-11-18T11:06:25;5.00;99.90
51793;DHT22;37850;53.178;6.376;2023-11-18T11:08:52;5.00;99.90
51793;DHT22;37850;53.178;6.376;2023-11-18T11:11:22;5.10;99.90
51793;DHT22;37850;53.178;6.376;2023-11-18T11:14:02;5.10;99.90
51793;DHT22;37850;53.178;6.376;2023-11-18T11:16:36;5.00;99.90
51793;DHT22;37850;53.178;6.376;2023-11-18T11:19:04;5.00;99.90
51793;DHT22;37850;53.178;6.376;2023-11-18T11:21:43;5.00;99.90
51793;DHT22;37850;53.178;6.376;2023-11-18T11:24:25;5.00;99.90
51793;DHT22;37850;53.178;6.376;2023-11-18T11:29:59;5.00;99.90
51793;DHT22;37850;53.178;6.376;2023-11-18T11:32:45;5.00;99.90
51793;DHT22;37850;53.178;6.376;2023-11-18T11:35:21;5.00;99.90
51793;DHT22;37850;53.178;6.376;2023-11-18T11:37:48;5.00;99.90
51793;DHT22;37850;53.178;6.376;2023-11-18T11:40:14;5.00;99.90
51793;DHT22;37850;53.178;6.376;2023-11-18T11:42:50;5.00;99.90
51793;DHT22;37850;53.178;6.376;2023-11-18T11:45:27;5.00;99.90
51793;DHT22;37850;53.178;6.376;2023-11-18T11:48:00;5.00;99.90
51793;DHT22;37850;53.178;6.376;2023-11-18T11:50:53;5.00;99.90
51793;DHT22;37850;53.178;6.376;2023-11-18T11:53:23;5.00;99.90
51793;DHT22;37850;53.178;6.376;2023-11-18T11:55:53;5.20;99.90
51793;DHT22;37850;53.178;6.376;2023-11-18T11:58:29;5.00;99.90
51793;DHT22;37850;53.178;6.376;2023-11-18T12:00:59;5.10;99.90
51793;DHT22;37850;53.178;6.376;2023-11-18T12:03:26;5.10;99.90
51793;DHT22;37850;53.178;6.376;2023-11-18T12:06:01;5.10;99.90
51793;DHT22;37850;53.178;6.376;2023-11-18T12:08:36;5.00;99.90
51793;DHT22;37850;53.178;6.376;2023-11-18T12:11:05;5.10;99.90
51793;DHT22;37850;53.178;6.376;2023-11-18T12:13:35;5.00;99.90
51793;DHT22;37850;53.178;6.376;2023-11-18T12:16:05;5.90;99.90
51793;DHT22;37850;53.178;6.376;2023-11-18T12:18:31;5.10;99.90
51793;DHT22;37850;53.178;6.376;2023-11-18T12:21:02;5.10;99.90
51793;DHT22;37850;53.178;6.376;2023-11-18T12:23:29;5.10;99.90
51793;DHT22;37850;53.178;6.376;2023-11-18T12:25:57;5.10;99.90
51793;DHT22;37850;53.178;6.376;2023-11-18T12:28:29;5.10;99.90
51793;DHT22;37850;53.178;6.376;2023-11-18T12:31:01;5.20;99.90
51793;DHT22;37850;53.178;6.376;2023-11-18T12:37:01;5.10;99.90
51793;DHT22;37850;53.178;6.376;2023-11-18T12:43:05;5.20;99.90
51793;DHT22;37850;53.178;6.376;2023-11-18T12:48:31;5.20;99.90
51793;DHT22;37850;53.178;6.376;2023-11-18T12:50:58;5.20;99.90
51793;DHT22;37850;53.178;6.376;2023-11-18T12:53:26;5.20;99.90
51793;DHT22;37850;53.178;6.376;2023-11-18T12:55:54;5.20;99.90
51793;DHT22;37850;53.178;6.376;2023-11-18T12:58:20;5.20;99.90
51793;DHT22;37850;53.178;6.376;2023-11-18T13:00:48;5.20;99.90
51793;DHT22;37850;53.178;6.376;2023-11-18T13:03:15;5.20;99.90
51793;DHT22;37850;53.178;6.376;2023-11-18T13:05:43;5.30;99.90
51793;DHT22;37850;53.178;6.376;2023-11-18T13:08:11;5.30;99.90
51793;DHT22;37850;53.178;6.376;2023-11-18T13:10:36;5.30;99.90
51793;DHT22;37850;53.178;6.376;2023-11-18T13:13:04;5.20;99.90
51793;DHT22;37850;53.178;6.376;2023-11-18T13:15:30;5.30;99.90
51793;DHT22;37850;53.178;6.376;2023-11-18T13:18:00;5.50;99.90
51793;DHT22;37850;53.178;6.376;2023-11-18T13:20:27;5.30;99.90
51793;DHT22;37850;53.178;6.376;2023-11-18T13:22:53;5.30;99.90
51793;DHT22;37850;53.178;6.376;2023-11-18T13:25:22;5.30;99.90
51793;DHT22;37850;53.178;6.376;2023-11-18T13:27:49;5.30;99.90
51793;DHT22;37850;53.178;6.376;2023-11-18T13:30:15;5.30;99.90
51793;DHT22;37850;53.178;6.376;2023-11-18T13:32:43;5.30;99.90
51793;DHT22;37850;53.178;6.376;2023-11-18T13:35:12;5.30;99.90
51793;DHT22;37850;53.178;6.376;2023-11-18T13:37:49;5.30;99.90
51793;DHT22;37850;53.178;6.376;2023-11-18T13:40:15;5.40;99.90
51793;DHT22;37850;53.178;6.376;2023-11-18T13:42:44;5.40;99.90
51793;DHT22;37850;53.178;6.376;2023-11-18T13:45:13;5.40;99.90
51793;DHT22;37850;53.178;6.376;2023-11-18T13:47:50;5.40;99.90
51793;DHT22;37850;53.178;6.376;2023-11-18T13:50:17;5.40;99.90
51793;DHT22;37850;53.178;6.376;2023-11-18T13:52:46;5.40;99.90
51793;DHT22;37850;53.178;6.376;2023-11-18T13:55:15;5.60;99.90
51793;DHT22;37850;53.178;6.376;2023-11-18T13:57:43;5.40;99.90
51793;DHT22;37850;53.178;6.376;2023-11-18T14:00:10;5.90;99.90
51793;DHT22;37850;53.178;6.376;2023-11-18T14:02:40;5.50;99.90
51793;DHT22;37850;53.178;6.376;2023-11-18T14:05:17;5.50;99.90
51793;DHT22;37850;53.178;6.376;2023-11-18T14:07:47;5.60;99.90
51793;DHT22;37850;53.178;6.376;2023-11-18T14:10:14;5.50;99.90
51793;DHT22;37850;53.178;6.376;2023-11-18T14:12:40;5.50;99.90
51793;DHT22;37850;53.178;6.376;2023-11-18T14:15:20;5.50;99.90
51793;DHT22;37850;53.178;6.376;2023-11-18T14:17:46;5.50;99.90
51793;DHT22;37850;53.178;6.376;2023-11-18T14:20:12;5.60;99.90
51793;DHT22;37850;53.178;6.376;2023-11-18T14:22:39;5.60;99.90
51793;DHT22;37850;53.178;6.376;2023-11-18T14:25:06;5.60;99.90
51793;DHT22;37850;53.178;6.376;2023-11-18T14:27:33;5.60;99.90
51793;DHT22;37850;53.178;6.376;2023-11-18T14:29:59;5.60;99.90
51793;DHT22;37850;53.178;6.376;2023-11-18T14:32:25;5.60;99.90
51793;DHT22;37850;53.178;6.376;2023-11-18T14:34:52;5.60;99.90
51793;DHT22;37850;53.178;6.376;2023-11-18T14:37:19;5.60;99.90
51793;DHT22;37850;53.178;6.376;2023-11-18T14:39:48;5.60;99.90
51793;DHT22;37850;53.178;6.376;2023-11-18T14:42:14;5.60;99.90
51793;DHT22;37850;53.178;6.376;2023-11-18T14:44:40;5.70;99.90
51793;DHT22;37850;53.178;6.376;2023-11-18T14:47:06;5.70;99.90
51793;DHT22;37850;53.178;6.376;2023-11-18T14:49:32;5.70;99.90
51793;DHT22;37850;53.178;6.376;2023-11-18T14:51:58;5.70;99.90
51793;DHT22;37850;53.178;6.376;2023-11-18T14:54:24;5.70;99.90
51793;DHT22;37850;53.178;6.376;2023-11-18T14:56:50;5.70;99.90
51793;DHT22;37850;53.178;6.376;2023-11-18T14:59:16;5.70;99.90
51793;DHT22;37850;53.178;6.376;2023-11-18T15:01:42;5.70;99.90
51793;DHT22;37850;53.178;6.376;2023-11-18T15:04:09;5.70;99.90
51793;DHT22;37850;53.178;6.376;2023-11-18T15:06:36;5.70;99.90
51793;DHT22;37850;53.178;6.376;2023-11-18T15:09:02;5.70;99.90
51793;DHT22;37850;53.178;6.376;2023-11-18T15:11:29;5.80;99.90
51793;DHT22;37850;53.178;6.376;2023-11-18T15:13:57;5.80;99.90
51793;DHT22;37850;53.178;6.376;2023-11-18T15:16:23;5.80;99.90
51793;DHT22;37850;53.178;6.376;2023-11-18T15:18:48;5.80;99.90
51793;DHT22;37850;53.178;6.376;2023-11-18T15:21:17;5.80;99.90
51793;DHT22;37850;53.178;6.376;2023-11-18T15:23:44;5.80;99.90
51793;DHT22;37850;53.178;6.376;2023-11-18T15:26:09;5.80;99.90
51793;DHT22;37850;53.178;6.376;2023-11-18T15:28:35;5.80;99.90
51793;DHT22;37850;53.178;6.376;2023-11-18T15:31:01;5.80;99.90
51793;DHT22;37850;53.178;6.376;2023-11-18T15:33:29;5.80;99.90
51793;DHT22;37850;53.178;6.376;2023-11-18T15:35:56;5.80;99.90
51793;DHT22;37850;53.178;6.376;2023-11-18T15:38:22;5.90;99.90
51793;DHT22;37850;53.178;6.376;2023-11-18T15:40:48;5.80;99.90
51793;DHT22;37850;53.178;6.376;2023-11-18T15:43:15;5.90;99.90
51793;DHT22;37850;53.178;6.376;2023-11-18T15:45:42;5.90;99.90
51793;DHT22;37850;53.178;6.376;2023-11-18T15:48:10;5.90;99.90
51793;DHT22;37850;53.178;6.376;2023-11-18T15:50:36;5.90;99.90
51793;DHT22;37850;53.178;6.376;2023-11-18T15:53:03;5.90;99.90
51793;DHT22;37850;53.178;6.376;2023-11-18T15:55:31;5.90;99.90
51793;DHT22;37850;53.178;6.376;2023-11-18T15:57:57;5.90;99.90
51793;DHT22;37850;53.178;6.376;2023-11-18T16:00:26;6.00;99.90
51793;DHT22;37850;53.178;6.376;2023-11-18T16:05:20;6.00;99.90
51793;DHT22;37850;53.178;6.376;2023-11-18T16:07:48;6.00;99.90
51793;DHT22;37850;53.178;6.376;2023-11-18T16:10:17;6.00;99.90
51793;DHT22;37850;53.178;6.376;2023-11-18T16:12:53;6.00;99.90